Time;durP1;ratioP1;P1;durP2;ratioP2;P2;SDS_P1;SDS_P2;PMS_P1;PMS_P2;Temp;Humidity;BMP_temperature;BMP_pressure;BME280_temperature;BME280_humidity;BME280_pressure;Samples;Min_cycle;Max_cycle;Signal;HPM_P1;HPM_P2
2021/12/03 00:00:26;;;;;;;8.38;5.03;;;;;;;1.70;64.39;95224.97;1673313;85;21018;-80
2021/12/03 00:02:54;;;;;;;9.73;4.62;;;;;;;1.65;64.03;95234.88;1672679;86;21014;-80
2021/12/03 00:05:19;;;;;;;6.22;3.77;;;;;;;1.57;63.15;95245.08;1672027;84;21021;-80
2021/12/03 00:07:45;;;;;;;7.42;4.10;;;;;;;1.49;62.27;95254.82;1673498;84;21014;-80
2021/12/03 00:10:13;;;;;;;7.30;4.35;;;;;;;1.44;60.73;95268.53;1676456;85;22022;-80
2021/12/03 00:12:40;;;;;;;8.68;4.12;;;;;;;1.36;61.82;95267.23;1680082;85;20999;-80
2021/12/03 00:15:07;;;;;;;7.10;3.87;;;;;;;1.32;62.67;95265.13;1672183;85;21034;-80
2021/12/03 00:17:32;;;;;;;8.60;4.28;;;;;;;1.29;62.41;95262.85;1671557;86;20981;-80
2021/12/03 00:19:59;;;;;;;8.05;3.67;;;;;;;1.28;62.44;95257.41;1672474;86;21136;-80
2021/12/03 00:22:26;;;;;;;9.63;4.35;;;;;;;1.23;62.46;95268.59;1645362;86;21046;-80
2021/12/03 00:24:52;;;;;;;7.67;4.50;;;;;;;1.19;62.95;95268.89;1672426;86;20975;-80
2021/12/03 00:27:18;;;;;;;10.98;5.10;;;;;;;1.20;62.90;95272.25;1670805;86;20994;-80
2021/12/03 00:29:44;;;;;;;5.55;4.20;;;;;;;1.22;62.81;95283.61;1670519;86;21009;-80
2021/12/03 00:32:09;;;;;;;8.50;5.03;;;;;;;1.23;63.21;95299.30;1672520;85;21010;-80
2021/12/03 00:34:35;;;;;;;8.65;4.67;;;;;;;1.22;63.29;95298.49;1671067;86;21021;-80
2021/12/03 00:37:01;;;;;;;8.53;5.22;;;;;;;1.25;63.80;95298.19;1672186;85;21038;-80
2021/12/03 00:39:27;;;;;;;10.35;5.30;;;;;;;1.30;63.84;95307.96;1645996;86;21377;-80
2021/12/03 00:41:58;;;;;;;10.48;4.40;;;;;;;1.30;63.47;95306.68;1670974;86;21101;-80
2021/12/03 00:44:23;;;;;;;8.78;4.00;;;;;;;1.29;63.40;95311.00;1665351;86;21021;-80
2021/12/03 00:46:48;;;;;;;9.18;4.12;;;;;;;1.25;63.65;95308.90;1675073;86;21059;-80
2021/12/03 00:49:14;;;;;;;8.83;4.47;;;;;;;1.24;63.69;95318.81;1681509;84;21018;-80
2021/12/03 00:51:39;;;;;;;7.58;4.25;;;;;;;1.25;63.69;95326.81;1673519;86;21071;-80
2021/12/03 00:54:05;;;;;;;8.60;4.08;;;;;;;1.22;63.11;95324.56;1644934;86;20995;-80
2021/12/03 00:56:31;;;;;;;6.50;3.75;;;;;;;1.18;62.82;95335.58;1648056;85;21417;-80
2021/12/03 00:58:56;;;;;;;9.40;3.70;;;;;;;1.15;63.53;95329.48;1671756;85;21048;-80
2021/12/03 01:01:22;;;;;;;6.20;3.25;;;;;;;1.14;63.18;95334.27;1686779;85;21017;-80
2021/12/03 01:03:48;;;;;;;5.25;3.40;;;;;;;1.14;63.64;95332.52;1675114;85;21083;-80
2021/12/03 01:06:14;;;;;;;6.78;2.98;;;;;;;1.15;62.54;95333.32;1675123;84;21039;-80
2021/12/03 01:08:39;;;;;;;6.22;3.12;;;;;;;1.10;62.81;95338.86;1667653;84;21012;-80
2021/12/03 01:11:07;;;;;;;4.28;3.22;;;;;;;1.12;63.22;95341.27;1673247;85;21011;-80
2021/12/03 01:13:33;;;;;;;7.17;3.25;;;;;;;1.07;63.07;95341.72;1672975;86;20967;-80
2021/12/03 01:15:59;;;;;;;4.67;3.00;;;;;;;1.06;62.88;95340.12;1673256;86;21010;-80
2021/12/03 01:18:25;;;;;;;9.08;3.72;;;;;;;1.05;63.31;95338.52;1673052;85;20986;-80
2021/12/03 01:20:51;;;;;;;4.55;2.90;;;;;;;1.03;62.90;95342.17;1674737;86;21106;-80
2021/12/03 01:23:17;;;;;;;7.15;2.75;;;;;;;0.99;62.46;95338.31;1675756;85;21418;-80
2021/12/03 01:25:43;;;;;;;6.00;3.00;;;;;;;0.71;62.87;95303.88;1672996;86;21026;-80
2021/12/03 01:28:08;;;;;;;5.92;3.17;;;;;;;0.93;63.05;95351.20;1671785;86;21099;-80
2021/12/03 01:30:34;;;;;;;5.12;3.05;;;;;;;0.90;63.10;95343.83;1671262;86;21437;-80
2021/12/03 01:33:01;;;;;;;5.50;2.52;;;;;;;0.89;62.74;95343.50;1672835;85;21407;-80
2021/12/03 01:35:27;;;;;;;4.58;2.65;;;;;;;0.83;62.58;95339.79;1671707;85;21092;-80
2021/12/03 01:37:53;;;;;;;5.95;3.20;;;;;;;0.76;62.90;95343.06;1687386;85;21044;-80
2021/12/03 01:40:22;;;;;;;4.47;2.60;;;;;;;0.73;63.04;95344.64;1641010;86;21449;-80
2021/12/03 01:42:48;;;;;;;6.67;3.08;;;;;;;0.69;62.68;95351.81;1671240;85;21093;-80
2021/12/03 01:45:22;;;;;;;4.35;2.50;;;;;;;0.65;62.93;95353.50;1666799;86;21373;-80
2021/12/03 01:47:49;;;;;;;6.53;2.85;;;;;;;0.62;62.85;95353.32;1667049;86;21105;-80
2021/12/03 01:50:15;;;;;;;5.58;3.00;;;;;;;0.57;63.29;95359.36;1667046;86;20978;-80
2021/12/03 01:52:41;;;;;;;5.00;2.90;;;;;;;0.59;63.36;95367.20;1670328;86;21437;-80
2021/12/03 01:55:10;;;;;;;6.83;3.22;;;;;;;0.65;63.75;95371.39;1668762;85;21050;-80
2021/12/03 01:57:35;;;;;;;6.10;2.62;;;;;;;0.69;64.00;95376.57;1668481;86;20979;-80
2021/12/03 02:00:06;;;;;;;7.50;3.30;;;;;;;0.72;63.90;95381.39;1667077;86;21431;-80
2021/12/03 02:02:31;;;;;;;4.92;3.00;;;;;;;0.72;63.73;95386.50;1666504;86;21467;-80
2021/12/03 02:04:57;;;;;;;8.88;3.47;;;;;;;0.69;63.60;95385.05;1668373;85;21022;-80
2021/12/03 02:07:23;;;;;;;4.80;2.95;;;;;;;0.70;63.73;95396.08;1667075;84;20936;-80
2021/12/03 02:09:49;;;;;;;5.50;3.42;;;;;;;0.70;63.44;95409.66;1667045;86;21043;-80
2021/12/03 02:12:15;;;;;;;6.22;3.42;;;;;;;0.69;63.80;95409.81;1668538;85;21417;-80
2021/12/03 02:14:40;;;;;;;6.55;4.25;;;;;;;0.70;63.83;95419.09;1670237;85;21026;-80
2021/12/03 02:17:06;;;;;;;6.65;2.90;;;;;;;0.70;63.66;95415.25;1667451;86;21050;-80
2021/12/03 02:19:33;;;;;;;6.33;3.55;;;;;;;0.70;64.03;95416.05;1668231;86;21031;-80
2021/12/03 02:21:59;;;;;;;7.08;3.25;;;;;;;0.70;63.66;95423.72;1619503;86;21064;-80
2021/12/03 02:24:25;;;;;;;5.17;3.40;;;;;;;0.69;64.15;95420.84;1665530;86;21450;-80
2021/12/03 02:26:50;;;;;;;8.70;4.97;;;;;;;0.70;64.37;95425.00;1669463;86;21003;-80
2021/12/03 02:29:16;;;;;;;7.33;4.90;;;;;;;0.71;64.31;95423.25;1669240;85;21037;-80
2021/12/03 02:31:42;;;;;;;7.70;4.87;;;;;;;0.69;64.47;95437.45;1666983;86;21057;-80
2021/12/03 02:34:08;;;;;;;7.50;3.60;;;;;;;0.70;64.65;95439.53;1667093;86;21423;-80
2021/12/03 02:36:34;;;;;;;8.40;5.78;;;;;;;0.68;64.40;95440.16;1642343;86;21034;-80
2021/12/03 02:39:00;;;;;;;7.55;3.25;;;;;;;0.64;64.52;95439.62;1669869;86;21034;-79
2021/12/03 02:41:25;;;;;;;5.72;3.52;;;;;;;0.63;64.07;95448.23;1669397;85;21140;-80
2021/12/03 02:43:51;;;;;;;6.72;2.95;;;;;;;0.56;64.35;95446.73;1665493;86;21025;-80
2021/12/03 02:46:17;;;;;;;10.43;5.40;;;;;;;0.52;63.92;95451.02;1642407;86;20991;-80
2021/12/03 02:48:42;;;;;;;9.05;4.87;;;;;;;0.49;64.51;95451.30;1670310;86;21385;-80
2021/12/03 02:51:08;;;;;;;6.10;4.08;;;;;;;0.45;64.55;95451.23;1669861;85;20967;-80
2021/12/03 02:53:34;;;;;;;5.78;3.02;;;;;;;0.40;64.30;95447.83;1667073;86;21295;-80
2021/12/03 02:56:00;;;;;;;5.20;2.67;;;;;;;0.37;64.52;95456.27;1665694;85;21013;-80
2021/12/03 02:58:26;;;;;;;5.87;2.70;;;;;;;0.29;63.96;95456.48;1669896;86;20987;-80
2021/12/03 03:00:52;;;;;;;4.75;2.75;;;;;;;0.20;63.75;95466.28;1668928;86;21277;-80
2021/12/03 03:03:17;;;;;;;5.08;2.90;;;;;;;0.15;63.89;95476.09;1668775;86;21370;-80
2021/12/03 03:05:56;;;;;;;4.50;2.95;;;;;;;0.12;64.36;95484.52;1667236;86;21034;-80
2021/12/03 03:08:23;;;;;;;5.47;2.47;;;;;;;0.08;64.36;95489.10;1669124;84;21071;-80
2021/12/03 03:10:50;;;;;;;4.72;2.98;;;;;;;0.07;64.54;95486.69;1668121;86;21039;-80
2021/12/03 03:13:17;;;;;;;4.70;2.87;;;;;;;0.05;64.52;95489.86;1689228;85;21197;-80
2021/12/03 03:15:43;;;;;;;6.03;3.30;;;;;;;0.04;65.16;95489.53;1690515;84;21396;-80
2021/12/03 03:18:19;;;;;;;5.20;2.70;;;;;;;0.07;65.14;95493.88;1690496;85;21068;-80
2021/12/03 03:20:45;;;;;;;6.25;3.42;;;;;;;0.09;65.33;95504.76;1690467;85;21039;-80
2021/12/03 03:23:12;;;;;;;5.95;3.80;;;;;;;0.12;64.95;95512.14;1702400;84;22156;-80
2021/12/03 03:25:41;;;;;;;5.28;3.05;;;;;;;0.08;64.95;95516.39;1690597;84;21089;-80
2021/12/03 03:28:08;;;;;;;5.05;3.10;;;;;;;0.07;65.23;95517.34;1703256;83;21088;-80
2021/12/03 03:30:34;;;;;;;5.65;3.55;;;;;;;0.05;65.45;95519.23;1725777;83;22181;-80
2021/12/03 03:33:00;;;;;;;5.50;3.35;;;;;;;0.07;65.68;95514.31;1722867;83;21004;-80
2021/12/03 03:35:25;;;;;;;6.33;3.80;;;;;;;0.10;65.55;95519.61;1722774;83;20988;-80
2021/12/03 03:37:51;;;;;;;4.95;3.17;;;;;;;0.06;65.79;95523.39;1729738;83;20995;-80
2021/12/03 03:40:17;;;;;;;4.47;3.22;;;;;;;0.07;65.80;95527.56;1726205;83;21379;-80
2021/12/03 03:42:43;;;;;;;5.03;2.80;;;;;;;0.09;66.26;95528.22;1724655;83;21050;-80
2021/12/03 03:45:13;;;;;;;6.00;3.42;;;;;;;0.13;66.40;95535.46;1731507;83;20978;-80
2021/12/03 03:47:39;;;;;;;4.45;3.00;;;;;;;0.10;66.61;95538.30;1729647;83;21072;-79
2021/12/03 03:50:06;;;;;;;3.90;2.65;;;;;;;0.12;66.60;95534.33;1731664;83;21043;-80
2021/12/03 03:52:33;;;;;;;3.33;2.77;;;;;;;0.09;66.19;95537.97;1723187;83;21016;-79
2021/12/03 03:54:59;;;;;;;3.15;2.70;;;;;;;0.08;66.48;95540.66;1697451;83;20955;-80
2021/12/03 03:57:25;;;;;;;4.83;3.00;;;;;;;0.07;66.72;95550.55;1717765;82;21043;-80
2021/12/03 03:59:51;;;;;;;4.25;2.80;;;;;;;0.06;66.59;95550.21;1712168;83;21000;-80
2021/12/03 04:02:16;;;;;;;3.77;2.80;;;;;;;0.04;66.97;95559.77;1721770;83;21024;-80
2021/12/03 04:04:42;;;;;;;5.20;3.00;;;;;;;0.01;67.15;95559.57;1727538;83;20996;-79
2021/12/03 04:07:08;;;;;;;9.68;3.25;;;;;;;-0.02;67.04;95564.45;1727835;83;20966;-79
2021/12/03 04:09:34;;;;;;;7.15;3.45;;;;;;;-0.05;67.25;95559.63;1721233;82;20964;-79
2021/12/03 04:11:59;;;;;;;7.37;3.77;;;;;;;0.01;67.38;95564.68;1711053;83;21058;-79
2021/12/03 04:14:25;;;;;;;6.53;3.70;;;;;;;0.06;67.74;95568.90;1693883;84;21345;-80
2021/12/03 04:16:51;;;;;;;6.83;4.30;;;;;;;0.10;67.71;95577.09;1703075;84;20993;-80
2021/12/03 04:19:18;;;;;;;9.03;3.85;;;;;;;0.05;67.73;95586.45;1707787;84;21498;-79
2021/12/03 04:21:45;;;;;;;7.10;3.80;;;;;;;0.04;67.98;95590.41;1703477;83;20971;-79
2021/12/03 04:24:11;;;;;;;6.10;3.90;;;;;;;-0.01;67.76;95597.99;1722566;83;20990;-79
2021/12/03 04:26:37;;;;;;;8.38;4.42;;;;;;;-0.06;67.81;95598.88;1718594;83;21063;-80
2021/12/03 04:29:02;;;;;;;6.80;3.50;;;;;;;-0.09;67.95;95592.77;1707143;83;20978;-80
2021/12/03 04:31:29;;;;;;;5.83;3.67;;;;;;;-0.10;67.98;95596.73;1722673;83;20939;-80
2021/12/03 04:33:55;;;;;;;6.12;4.55;;;;;;;-0.10;68.17;95606.95;1718865;83;21364;-80
2021/12/03 04:36:20;;;;;;;4.60;3.37;;;;;;;-0.10;68.13;95598.02;1722781;83;20987;-80
2021/12/03 04:38:46;;;;;;;7.12;4.08;;;;;;;-0.07;68.31;95599.82;1717990;83;20965;-80
2021/12/03 04:41:12;;;;;;;6.75;3.50;;;;;;;-0.04;68.31;95603.37;1720819;83;21046;-80
2021/12/03 04:43:38;;;;;;;7.10;4.47;;;;;;;-0.01;68.67;95594.16;1721317;83;21348;-80
2021/12/03 04:46:04;;;;;;;7.22;4.75;;;;;;;0.04;68.56;95598.88;1722275;83;20975;-80
2021/12/03 04:48:30;;;;;;;7.08;3.77;;;;;;;0.03;68.26;95598.55;1717481;82;21030;-80
2021/12/03 04:50:55;;;;;;;9.95;5.00;;;;;;;0.04;68.40;95610.84;1722544;83;21002;-80
2021/12/03 04:53:21;;;;;;;10.05;5.85;;;;;;;0.03;68.24;95620.73;1725033;83;20981;-80
2021/12/03 04:55:48;;;;;;;10.78;5.70;;;;;;;0.05;68.57;95626.03;1713148;83;20937;-80
2021/12/03 04:58:14;;;;;;;9.43;4.87;;;;;;;0.07;68.44;95625.42;1717769;83;21399;-80
2021/12/03 05:00:50;;;;;;;9.10;5.12;;;;;;;0.03;68.34;95622.01;1712968;83;21095;-80
2021/12/03 05:03:16;;;;;;;7.47;3.67;;;;;;;0.02;68.39;95619.13;1696566;84;21081;-80
2021/12/03 05:05:51;;;;;;;5.08;3.17;;;;;;;-0.01;68.26;95622.25;1724825;83;21060;-80
2021/12/03 05:08:11;;;;;;;6.28;3.20;;;;;;;-0.06;68.25;95620.59;1713942;82;21074;-80
2021/12/03 05:10:39;;;;;;;4.87;2.75;;;;;;;-0.07;68.45;95622.80;1722985;83;20972;-80
2021/12/03 05:13:22;;;;;;;8.95;4.17;;;;;;;-0.05;68.63;95636.71;1689801;84;21091;-80
2021/12/03 05:15:48;;;;;;;7.87;3.70;;;;;;;-0.05;68.30;95636.71;1718119;83;20981;-80
2021/12/03 05:18:19;;;;;;;7.42;4.20;;;;;;;-0.06;68.59;95646.59;1727169;83;20982;-80
2021/12/03 05:20:46;;;;;;;5.47;3.62;;;;;;;-0.02;68.58;95647.93;1717917;83;21011;-80
2021/12/03 05:23:12;;;;;;;6.95;3.90;;;;;;;-0.02;68.69;95648.73;1690029;84;21035;-79
2021/12/03 05:25:38;;;;;;;24.55;12.95;;;;;;;-0.02;68.70;95643.63;1717602;83;21439;-80
2021/12/03 05:28:04;;;;;;;10.45;5.10;;;;;;;-0.02;68.75;95655.13;1713022;83;20973;-80
2021/12/03 05:30:30;;;;;;;5.75;4.00;;;;;;;-0.02;68.64;95654.31;1713082;83;21052;-80
2021/12/03 05:32:56;;;;;;;6.45;4.22;;;;;;;-0.02;68.56;95658.95;1697409;84;21011;-79
2021/12/03 05:35:22;;;;;;;6.62;4.67;;;;;;;-0.01;68.95;95661.84;1722798;83;20987;-80
2021/12/03 05:37:48;;;;;;;8.45;4.70;;;;;;;0.01;68.93;95657.09;1723614;83;20987;-80
2021/12/03 05:40:15;;;;;;;7.53;4.30;;;;;;;0.00;68.76;95657.56;1727092;83;20967;-80
2021/12/03 05:42:42;;;;;;;8.65;4.42;;;;;;;0.03;68.87;95656.48;1721760;83;21073;-80
2021/12/03 05:45:10;;;;;;;10.88;5.37;;;;;;;0.02;68.88;95659.52;1694433;84;21029;-80
2021/12/03 05:47:36;;;;;;;11.48;5.70;;;;;;;0.03;68.86;95667.51;1718689;83;21083;-80
2021/12/03 05:50:03;;;;;;;9.95;4.58;;;;;;;0.05;68.85;95675.84;1716231;83;21058;-79
2021/12/03 05:52:29;;;;;;;8.18;4.60;;;;;;;0.04;69.00;95674.70;1718982;83;21000;-80
2021/12/03 05:54:55;;;;;;;19.15;12.45;;;;;;;0.01;68.75;95682.16;1702357;84;21044;-80
2021/12/03 05:57:20;;;;;;;31.50;19.62;;;;;;;-0.08;68.56;95684.23;1712675;83;21474;-80
2021/12/03 05:59:46;;;;;;;19.37;14.25;;;;;;;-0.14;68.87;95678.39;1717898;83;21060;-80
2021/12/03 06:02:12;;;;;;;10.15;7.92;;;;;;;-0.12;69.13;95682.89;1725690;83;21013;-80
2021/12/03 06:04:38;;;;;;;14.70;8.50;;;;;;;-0.10;69.22;95692.50;1724663;83;20968;-80
2021/12/03 06:07:04;;;;;;;10.95;6.42;;;;;;;-0.10;69.10;95707.82;1725071;83;21037;-80
2021/12/03 06:09:30;;;;;;;8.65;4.50;;;;;;;-0.18;69.11;95708.47;1721883;82;21022;-80
2021/12/03 06:11:56;;;;;;;10.78;6.25;;;;;;;-0.23;68.85;95711.08;1722566;83;21045;-80
2021/12/03 06:14:22;;;;;;;11.00;6.47;;;;;;;-0.28;69.29;95723.45;1720093;83;21432;-80
2021/12/03 06:16:48;;;;;;;15.10;7.42;;;;;;;-0.31;69.33;95727.08;1726980;83;21037;-80
2021/12/03 06:19:14;;;;;;;16.50;7.30;;;;;;;-0.31;69.65;95732.17;1724247;83;21078;-80
2021/12/03 06:21:39;;;;;;;16.27;7.40;;;;;;;-0.30;69.83;95741.45;1708808;83;21424;-80
2021/12/03 06:24:05;;;;;;;10.53;6.42;;;;;;;-0.34;69.69;95747.27;1727027;83;21050;-80
2021/12/03 06:26:31;;;;;;;14.30;6.67;;;;;;;-0.40;69.88;95747.80;1711361;83;21012;-79
2021/12/03 06:28:56;;;;;;;14.40;7.20;;;;;;;-0.41;70.12;95756.86;1671950;86;20956;-79
2021/12/03 06:31:22;;;;;;;15.35;8.13;;;;;;;-0.44;70.23;95759.67;1671409;86;21383;-80
2021/12/03 06:33:48;;;;;;;12.80;8.10;;;;;;;-0.52;70.25;95769.23;1672951;86;20976;-80
2021/12/03 06:36:14;;;;;;;13.62;8.10;;;;;;;-0.59;70.37;95768.61;1671347;86;21022;-79
2021/12/03 06:38:39;;;;;;;11.85;7.58;;;;;;;-0.58;70.71;95772.31;1646846;86;21406;-80
2021/12/03 06:41:07;;;;;;;14.87;7.83;;;;;;;-0.53;70.82;95780.84;1681072;85;21003;-80
2021/12/03 06:43:33;;;;;;;11.53;7.67;;;;;;;-0.53;70.84;95778.30;1676007;85;21055;-80
2021/12/03 06:45:59;;;;;;;17.73;8.50;;;;;;;-0.54;70.82;95780.51;1675302;86;21421;-80
2021/12/03 06:48:25;;;;;;;12.93;7.40;;;;;;;-0.57;70.97;95783.33;1648670;85;20951;-79
2021/12/03 06:50:51;;;;;;;16.37;9.60;;;;;;;-0.56;71.15;95787.02;1675758;85;20992;-80
2021/12/03 06:53:21;;;;;;;16.27;9.60;;;;;;;-0.56;71.15;95788.77;1670100;85;20963;-79
2021/12/03 06:55:47;;;;;;;14.80;10.08;;;;;;;-0.57;70.99;95789.70;1665291;86;20991;-79
2021/12/03 06:58:15;;;;;;;15.23;10.10;;;;;;;-0.56;70.96;95795.95;1672869;85;21013;-79
2021/12/03 07:00:41;;;;;;;16.82;9.45;;;;;;;-0.55;71.00;95805.69;1668426;85;21046;-79
2021/12/03 07:03:06;;;;;;;16.60;10.28;;;;;;;-0.53;71.08;95806.37;1668515;86;21006;-79
2021/12/03 07:05:32;;;;;;;12.60;8.68;;;;;;;-0.55;71.07;95812.07;1636781;86;21096;-79
2021/12/03 07:07:58;;;;;;;14.60;9.53;;;;;;;-0.57;70.88;95812.67;1714209;82;20922;-79
2021/12/03 07:10:24;;;;;;;17.48;10.48;;;;;;;-0.56;71.13;95811.73;1713614;83;22169;-79
2021/12/03 07:12:49;;;;;;;15.45;9.75;;;;;;;-0.53;71.08;95816.58;1612987;88;21073;-79
2021/12/03 07:15:15;;;;;;;25.15;13.30;;;;;;;-0.49;71.16;95810.27;1658254;86;21006;-79
2021/12/03 07:17:41;;;;;;;14.33;9.68;;;;;;;-0.47;71.02;95820.72;1669587;85;21069;-79
2021/12/03 07:20:09;;;;;;;13.20;7.90;;;;;;;-0.47;70.74;95825.02;1658211;86;21370;-79
2021/12/03 07:22:35;;;;;;;11.40;8.20;;;;;;;-0.64;70.74;95799.63;1656643;87;21006;-79
2021/12/03 07:25:02;;;;;;;17.62;10.70;;;;;;;-0.43;70.94;95828.92;1676017;85;20980;-79
2021/12/03 07:27:28;;;;;;;18.98;11.93;;;;;;;-0.39;70.92;95827.73;1676071;85;21370;-79
2021/12/03 07:29:54;;;;;;;19.17;11.80;;;;;;;-0.37;71.19;95839.42;1676047;85;21077;-79
2021/12/03 07:32:21;;;;;;;22.00;13.25;;;;;;;-0.32;71.35;95841.14;1670534;85;21403;-79
2021/12/03 07:34:47;;;;;;;16.62;9.80;;;;;;;-0.26;71.23;95841.56;1629562;87;21071;-79
2021/12/03 07:37:13;;;;;;;16.00;7.58;;;;;;;-0.25;71.15;95846.53;1656886;86;20942;-79
2021/12/03 07:39:39;;;;;;;9.43;6.30;;;;;;;-0.25;70.94;95843.98;1680740;85;21005;-79
2021/12/03 07:42:05;;;;;;;14.40;7.05;;;;;;;-0.26;70.87;95846.66;1658208;86;21006;-79
2021/12/03 07:44:31;;;;;;;10.30;6.45;;;;;;;-0.26;71.01;95854.33;1658295;86;21055;-79
2021/12/03 07:46:57;;;;;;;13.58;7.90;;;;;;;-0.20;71.22;95847.42;1656654;87;21421;-80
2021/12/03 07:49:24;;;;;;;11.05;6.35;;;;;;;-0.15;71.33;95849.95;1656846;87;21066;-80
2021/12/03 07:51:50;;;;;;;7.15;6.40;;;;;;;-0.13;71.03;95851.90;1656898;86;21064;-80
2021/12/03 07:54:17;;;;;;;8.80;6.10;;;;;;;-0.12;70.99;95855.26;1682271;85;21036;-79
2021/12/03 07:56:44;;;;;;;9.20;5.70;;;;;;;-0.12;71.19;95860.36;1658404;86;21027;-79
2021/12/03 07:59:10;;;;;;;7.45;6.25;;;;;;;-0.12;70.60;95861.64;1656979;86;21066;-80
2021/12/03 08:01:35;;;;;;;14.13;8.60;;;;;;;-0.10;70.75;95883.55;1667120;85;21002;-80
2021/12/03 08:04:01;;;;;;;20.23;9.48;;;;;;;-0.04;70.72;95890.70;1663648;85;20974;-80
2021/12/03 08:06:27;;;;;;;8.60;6.47;;;;;;;-0.04;70.54;95898.83;1656483;87;21429;-80
2021/12/03 08:08:53;;;;;;;11.53;6.42;;;;;;;-0.10;70.60;95893.77;1689318;84;21027;-80
2021/12/03 08:11:18;;;;;;;15.28;7.90;;;;;;;-0.10;70.74;95896.33;1686336;84;20983;-80
2021/12/03 08:13:44;;;;;;;8.40;7.00;;;;;;;-0.13;70.67;95899.61;1712453;83;21102;-80
2021/12/03 08:16:10;;;;;;;9.75;6.05;;;;;;;-0.19;70.72;95904.73;1719817;83;21513;-80
2021/12/03 08:18:35;;;;;;;9.90;6.65;;;;;;;-0.23;70.91;95903.38;1694791;83;21399;-80
2021/12/03 08:21:05;;;;;;;9.08;5.15;;;;;;;-0.21;71.03;95906.61;1719609;83;21029;-80
2021/12/03 08:23:31;;;;;;;12.30;7.15;;;;;;;-0.21;71.02;95905.34;1673741;85;21015;-80
2021/12/03 08:25:56;;;;;;;11.38;6.75;;;;;;;-0.18;71.13;95907.63;1649014;85;21305;-80
2021/12/03 08:28:22;;;;;;;10.35;7.47;;;;;;;-0.16;71.37;95909.62;1675231;85;20983;-79
2021/12/03 08:30:48;;;;;;;12.70;7.75;;;;;;;-0.15;71.27;95912.51;1671297;86;21394;-80
2021/12/03 08:33:14;;;;;;;18.77;11.12;;;;;;;-0.16;70.90;95922.38;1673639;86;21015;-80
2021/12/03 08:35:40;;;;;;;12.88;8.23;;;;;;;-0.18;70.93;95916.56;1673473;86;21002;-80
2021/12/03 08:38:05;;;;;;;8.05;6.78;;;;;;;-0.18;71.00;95928.06;1674987;85;20985;-80
2021/12/03 08:40:31;;;;;;;12.93;8.38;;;;;;;-0.20;70.61;95928.66;1668218;85;21023;-80
2021/12/03 08:42:57;;;;;;;12.75;8.65;;;;;;;-0.21;70.97;95930.87;1669977;85;21138;-80
2021/12/03 08:45:23;;;;;;;15.03;9.23;;;;;;;-0.18;71.01;95936.19;1667027;85;21065;-79
2021/12/03 08:47:57;;;;;;;12.28;8.00;;;;;;;-0.19;70.76;95945.59;1669706;86;21405;-79
2021/12/03 08:50:27;;;;;;;14.43;9.03;;;;;;;-0.18;71.02;95942.10;1666721;86;21025;-80
2021/12/03 08:55:31;;;;;;;8.80;4.80;;;;;;;-0.14;70.99;95956.26;1635889;86;21097;-79
2021/12/03 08:57:57;;;;;;;9.03;5.85;;;;;;;-0.18;70.72;95952.78;1668261;85;20993;-79
2021/12/03 09:00:22;;;;;;;7.03;4.60;;;;;;;-0.21;70.71;95961.52;1668073;86;21033;-79
2021/12/03 09:02:48;;;;;;;12.18;5.80;;;;;;;-0.22;70.45;95973.94;1665257;86;21025;-80
2021/12/03 09:05:14;;;;;;;11.43;5.92;;;;;;;-0.27;70.05;95970.16;1669951;85;21346;-80
2021/12/03 09:07:40;;;;;;;7.75;6.12;;;;;;;-0.28;70.35;95977.47;1672444;84;21021;-80
2021/12/03 09:10:10;;;;;;;10.13;6.65;;;;;;;-0.27;70.69;95973.52;1665521;86;20994;-80
2021/12/03 09:12:36;;;;;;;5.95;5.35;;;;;;;-0.22;70.54;95972.66;1678747;84;21446;-79
2021/12/03 09:15:06;;;;;;;6.80;5.87;;;;;;;-0.16;70.81;95972.65;1717866;83;21065;-80
2021/12/03 09:22:49;;;;;;;10.78;7.58;;;;;;;-0.07;70.78;95985.45;1720986;83;21012;-80
2021/12/03 09:25:15;;;;;;;14.30;8.45;;;;;;;0.02;71.01;95992.03;1721815;83;20999;-79
2021/12/03 09:27:41;;;;;;;10.80;7.03;;;;;;;0.08;71.00;95992.80;1691913;84;20976;-80
2021/12/03 09:30:09;;;;;;;8.33;6.85;;;;;;;0.12;70.99;95992.41;1722791;83;21017;-80
2021/12/03 09:32:35;;;;;;;14.20;7.95;;;;;;;0.15;70.67;95990.06;1720640;83;21394;-80
2021/12/03 09:35:01;;;;;;;10.43;7.65;;;;;;;0.16;70.91;96000.18;1712874;83;21015;-80
2021/12/03 09:37:27;;;;;;;11.55;7.17;;;;;;;0.19;70.58;95994.00;1720000;83;20943;-80
2021/12/03 09:39:55;;;;;;;10.90;6.80;;;;;;;0.24;70.70;95998.25;1720904;83;21054;-80
2021/12/03 09:42:21;;;;;;;9.88;6.55;;;;;;;0.25;70.40;95977.68;1724651;83;21010;-79
2021/12/03 09:44:51;;;;;;;8.33;5.80;;;;;;;0.33;69.70;95989.84;1720552;83;21041;-79
2021/12/03 09:47:19;;;;;;;9.95;5.87;;;;;;;0.36;69.67;95997.24;1715253;83;21021;-80
2021/12/03 09:49:53;;;;;;;7.40;4.70;;;;;;;0.36;69.33;95990.85;1722564;83;21113;-80
2021/12/03 09:54:59;;;;;;;9.35;5.65;;;;;;;0.32;69.17;95993.30;1712774;83;20989;-79
2021/12/03 10:00:25;;;;;;;;;;;;;;;0.40;69.08;95987.56;1716206;83;20974;-80
2021/12/03 10:19:58;;;;;;;38.83;14.83;;;;;;;0.34;68.48;95976.12;1718589;83;21003;-80
2021/12/03 10:46:03;;;;;;;48.00;19.48;;;;;;;0.71;67.68;95950.80;1719402;83;21083;-80
2021/12/03 10:48:48;;;;;;;22.70;10.58;;;;;;;0.75;67.57;95950.05;1723090;83;20997;-80
2021/12/03 10:51:38;;;;;;;12.55;6.80;;;;;;;0.76;67.34;95950.39;1709325;83;21016;-80
2021/12/03 11:37:14;;;;;;;5.05;4.28;;;;;;;1.13;62.41;95953.93;1668006;86;21357;-79
2021/12/03 11:42:44;;;;;;;6.90;4.25;;;;;;;1.16;62.27;95952.41;1674147;86;21046;-79
2021/12/03 13:01:31;;;;;;;6.58;5.00;;;;;;;1.31;55.34;95981.45;1663542;86;21042;-80
2021/12/03 13:16:21;;;;;;;7.92;4.10;;;;;;;1.35;54.68;95999.42;1642709;86;21042;-79
2021/12/03 13:18:46;;;;;;;6.50;3.98;;;;;;;1.34;54.45;95997.81;1655147;86;21070;-80
2021/12/03 14:40:55;;;;;;;4.90;3.47;;;;;;;0.10;54.09;96040.73;1652251;85;21061;-80
2021/12/03 14:43:25;;;;;;;16.82;10.45;;;;;;;0.00;54.28;96036.86;1664255;85;21457;-80
2021/12/03 14:46:11;;;;;;;31.20;22.85;;;;;;;-0.15;54.28;96044.48;1647018;86;21413;-80
2021/12/03 14:54:32;;;;;;;12.68;10.35;;;;;;;-0.38;54.30;96048.88;1807190;79;21137;-80
2021/12/03 15:08:13;;;;;;;4.95;3.47;;;;;;;-0.64;57.08;96061.16;1779380;79;20972;-80
2021/12/03 15:18:38;;;;;;;5.60;3.72;;;;;;;-0.67;57.15;96067.29;1758928;80;21416;-80
2021/12/03 15:23:55;;;;;;;11.55;5.50;;;;;;;-0.67;57.25;96077.50;1752553;80;21143;-80
2021/12/03 15:26:11;;;;;;;9.15;5.08;;;;;;;-0.65;56.60;96085.87;1765024;80;21075;-80
2021/12/03 15:33:53;;;;;;;12.90;8.00;;;;;;;-0.61;57.25;96096.17;1775554;80;21495;-80
2021/12/03 15:36:22;;;;;;;6.40;4.30;;;;;;;-0.65;57.66;96097.35;1765650;80;21454;-80
2021/12/03 15:38:52;;;;;;;8.58;5.30;;;;;;;-0.72;58.72;96100.02;1771245;80;21108;-79
2021/12/03 15:52:06;;;;;;;5.55;4.42;;;;;;;-0.88;60.20;96102.12;1768429;80;21130;-80
2021/12/03 16:16:17;;;;;;;78.10;41.50;;;;;;;-1.29;60.25;96107.38;1741200;80;21428;-80
2021/12/03 16:53:01;;;;;;;30.75;14.63;;;;;;;-1.38;58.26;96146.30;1779575;80;21076;-80
2021/12/03 16:55:28;;;;;;;17.25;10.08;;;;;;;-1.36;57.75;96148.26;1783547;79;21075;-80
2021/12/03 16:57:54;;;;;;;24.75;12.95;;;;;;;-1.37;57.76;96141.55;1755638;80;21003;-80
2021/12/03 17:00:30;;;;;;;85.15;43.15;;;;;;;-1.34;57.27;96145.59;1742815;79;21033;-80
2021/12/03 17:03:07;;;;;;;153.32;70.42;;;;;;;-1.32;57.26;96150.92;1772740;78;20995;-80
2021/12/03 17:08:25;;;;;;;296.87;84.70;;;;;;;-1.24;56.88;96149.09;1775028;79;21045;-80
2021/12/03 17:26:45;;;;;;;247.85;71.12;;;;;;;-1.10;55.40;96151.42;1779908;78;21391;-80
2021/12/03 18:00:23;;;;;;;155.10;62.60;;;;;;;-1.03;52.10;96147.93;1769277;80;21387;-80
2021/12/03 18:02:48;;;;;;;241.73;101.22;;;;;;;-1.02;52.54;96160.56;1754682;80;21031;-80
2021/12/03 18:07:56;;;;;;;88.87;25.88;;;;;;;-0.96;53.17;96155.02;1765560;80;21001;-80
2021/12/03 18:10:32;;;;;;;314.40;78.80;;;;;;;-0.94;52.82;96161.27;1775379;80;21038;-80
2021/12/03 18:18:49;;;;;;;111.35;32.08;;;;;;;-0.96;52.29;96154.20;1770429;80;21040;-80
2021/12/03 18:46:00;;;;;;;122.33;36.28;;;;;;;-0.99;51.13;96134.02;1763754;79;21410;-80
2021/12/03 18:56:03;;;;;;;9.85;4.22;;;;;;;-0.85;50.31;96126.12;1805377;78;21429;-80
2021/12/03 18:58:30;;;;;;;8.48;4.72;;;;;;;-0.85;50.79;96115.92;1766864;79;21000;-80
2021/12/03 19:00:57;;;;;;;6.80;4.75;;;;;;;-0.85;50.21;96115.92;1811407;79;21047;-80
2021/12/03 19:03:36;;;;;;;6.90;4.92;;;;;;;-0.88;50.34;96109.78;1770606;78;21031;-81
2021/12/03 19:11:14;;;;;;;9.78;5.47;;;;;;;-0.86;50.14;96121.14;1788567;79;21027;-80
2021/12/03 19:13:36;;;;;;;13.68;6.90;;;;;;;-0.92;50.11;96127.53;1746284;80;21043;-80
2021/12/03 19:16:02;;;;;;;9.68;5.37;;;;;;;-0.93;50.20;96123.36;1768257;80;21030;-80